South Chelmsford, Massachusetts
Current Conditions -  °F | °C
As of 11:56 AM on Tuesday 21 Oct 2014 (Local Time) from KBED Reporting Station
Few Clouds Few Clouds  
Wind Chill: 58°   Ceiling: Unl
Heat Index: 58°   Visibility: 10mi
Dew Point: 51°   Wind: 5mph
Humidity: 78%   Direction: 40°NE
Pressure: 29.95"   Gusts: NA
Location:  42.5915°N, 71.3555°W
Report Text: KBED 211556Z 04004KT 10SM FEW100 14/11 A2995 RMK AO2 SLP154 T01440106
Loading
Personal Weather Stations






























Interactive Weather Map
Tropical Storm Tracking
New forecast layout! Learn more

10-Day Weather Forecast

Advertisements
Track Severe Weather on mobile